sensor_id;sensor_type;location;lat;lon;timestamp;P1;P2;P0
76679;PMS5003;65597;51.520;-0.224;2023-02-28T00:02:10;8;7;
76679;PMS5003;65597;51.520;-0.224;2023-02-28T00:04:35;6;5;
76679;PMS5003;65597;51.520;-0.224;2023-02-28T00:07:01;6;5;
76679;PMS5003;65597;51.520;-0.224;2023-02-28T00:09:27;7;6;
76679;PMS5003;65597;51.520;-0.224;2023-02-28T00:11:53;7;5;
76679;PMS5003;65597;51.520;-0.224;2023-02-28T00:14:18;7;5;
76679;PMS5003;65597;51.520;-0.224;2023-02-28T00:16:43;6;5;
76679;PMS5003;65597;51.520;-0.224;2023-02-28T00:19:09;7;6;
76679;PMS5003;65597;51.520;-0.224;2023-02-28T00:21:34;5;5;
76679;PMS5003;65597;51.520;-0.224;2023-02-28T00:24:00;7;7;
76679;PMS5003;65597;51.520;-0.224;2023-02-28T00:26:25;7;6;
76679;PMS5003;65597;51.520;-0.224;2023-02-28T00:28:51;5;5;
76679;PMS5003;65597;51.520;-0.224;2023-02-28T00:31:16;7;6;
76679;PMS5003;65597;51.520;-0.224;2023-02-28T00:33:41;8;7;
76679;PMS5003;65597;51.520;-0.224;2023-02-28T00:36:08;7;7;
76679;PMS5003;65597;51.520;-0.224;2023-02-28T00:38:32;6;5;
76679;PMS5003;65597;51.520;-0.224;2023-02-28T00:40:58;9;7;
76679;PMS5003;65597;51.520;-0.224;2023-02-28T00:43:24;8;7;
76679;PMS5003;65597;51.520;-0.224;2023-02-28T00:45:49;6;5;
76679;PMS5003;65597;51.520;-0.224;2023-02-28T00:48:16;7;6;
76679;PMS5003;65597;51.520;-0.224;2023-02-28T00:50:40;7;7;
76679;PMS5003;65597;51.520;-0.224;2023-02-28T00:53:06;8;8;
76679;PMS5003;65597;51.520;-0.224;2023-02-28T00:55:31;8;7;
76679;PMS5003;65597;51.520;-0.224;2023-02-28T00:57:57;9;8;
76679;PMS5003;65597;51.520;-0.224;2023-02-28T01:00:25;8;7;
76679;PMS5003;65597;51.520;-0.224;2023-02-28T01:02:48;8;8;
76679;PMS5003;65597;51.520;-0.224;2023-02-28T01:05:13;8;8;
76679;PMS5003;65597;51.520;-0.224;2023-02-28T01:07:39;11;8;
76679;PMS5003;65597;51.520;-0.224;2023-02-28T01:10:05;8;6;
76679;PMS5003;65597;51.520;-0.224;2023-02-28T01:12:30;9;7;
76679;PMS5003;65597;51.520;-0.224;2023-02-28T01:14:55;8;7;
76679;PMS5003;65597;51.520;-0.224;2023-02-28T01:17:21;8;7;
76679;PMS5003;65597;51.520;-0.224;2023-02-28T01:19:46;8;7;
76679;PMS5003;65597;51.520;-0.224;2023-02-28T01:22:12;8;8;
76679;PMS5003;65597;51.520;-0.224;2023-02-28T01:24:38;6;6;
76679;PMS5003;65597;51.520;-0.224;2023-02-28T01:27:03;8;6;
76679;PMS5003;65597;51.520;-0.224;2023-02-28T01:29:28;8;7;
76679;PMS5003;65597;51.520;-0.224;2023-02-28T01:31:53;5;5;
76679;PMS5003;65597;51.520;-0.224;2023-02-28T01:34:19;8;7;
76679;PMS5003;65597;51.520;-0.224;2023-02-28T01:36:45;9;6;
76679;PMS5003;65597;51.520;-0.224;2023-02-28T01:39:09;7;7;
76679;PMS5003;65597;51.520;-0.224;2023-02-28T01:41:35;6;4;
76679;PMS5003;65597;51.520;-0.224;2023-02-28T01:44:02;5;5;
76679;PMS5003;65597;51.520;-0.224;2023-02-28T01:46:26;6;6;
76679;PMS5003;65597;51.520;-0.224;2023-02-28T01:48:53;8;7;
76679;PMS5003;65597;51.520;-0.224;2023-02-28T01:51:18;7;6;
76679;PMS5003;65597;51.520;-0.224;2023-02-28T01:53:43;8;7;
76679;PMS5003;65597;51.520;-0.224;2023-02-28T01:56:08;7;7;
76679;PMS5003;65597;51.520;-0.224;2023-02-28T01:58:34;9;7;
76679;PMS5003;65597;51.520;-0.224;2023-02-28T02:01:00;8;7;
76679;PMS5003;65597;51.520;-0.224;2023-02-28T02:03:25;9;7;
76679;PMS5003;65597;51.520;-0.224;2023-02-28T02:05:50;8;6;
76679;PMS5003;65597;51.520;-0.224;2023-02-28T02:08:21;7;6;
76679;PMS5003;65597;51.520;-0.224;2023-02-28T02:10:42;6;5;
76679;PMS5003;65597;51.520;-0.224;2023-02-28T02:13:11;8;4;
76679;PMS5003;65597;51.520;-0.224;2023-02-28T02:15:34;6;5;
76679;PMS5003;65597;51.520;-0.224;2023-02-28T02:17:59;6;5;
76679;PMS5003;65597;51.520;-0.224;2023-02-28T02:20:29;6;6;
76679;PMS5003;65597;51.520;-0.224;2023-02-28T02:25:18;8;5;
76679;PMS5003;65597;51.520;-0.224;2023-02-28T02:30:10;5;4;
76679;PMS5003;65597;51.520;-0.224;2023-02-28T02:32:36;6;6;
76679;PMS5003;65597;51.520;-0.224;2023-02-28T02:34:57;7;6;
76679;PMS5003;65597;51.520;-0.224;2023-02-28T02:37:24;13;7;
76679;PMS5003;65597;51.520;-0.224;2023-02-28T02:39:48;7;6;
76679;PMS5003;65597;51.520;-0.224;2023-02-28T02:42:13;5;5;
76679;PMS5003;65597;51.520;-0.224;2023-02-28T02:44:39;8;7;
76679;PMS5003;65597;51.520;-0.224;2023-02-28T02:47:05;6;5;
76679;PMS5003;65597;51.520;-0.224;2023-02-28T02:49:31;11;7;
76679;PMS5003;65597;51.520;-0.224;2023-02-28T02:51:55;6;6;
76679;PMS5003;65597;51.520;-0.224;2023-02-28T02:54:21;5;5;
76679;PMS5003;65597;51.520;-0.224;2023-02-28T02:56:46;5;4;
76679;PMS5003;65597;51.520;-0.224;2023-02-28T02:59:12;6;5;
76679;PMS5003;65597;51.520;-0.224;2023-02-28T03:01:37;7;6;
76679;PMS5003;65597;51.520;-0.224;2023-02-28T03:04:02;7;6;
76679;PMS5003;65597;51.520;-0.224;2023-02-28T03:06:27;6;6;
76679;PMS5003;65597;51.520;-0.224;2023-02-28T03:08:53;7;6;
76679;PMS5003;65597;51.520;-0.224;2023-02-28T03:11:19;5;5;
76679;PMS5003;65597;51.520;-0.224;2023-02-28T03:13:50;9;7;
76679;PMS5003;65597;51.520;-0.224;2023-02-28T03:18:37;7;6;
76679;PMS5003;65597;51.520;-0.224;2023-02-28T03:21:02;9;8;
76679;PMS5003;65597;51.520;-0.224;2023-02-28T03:23:28;6;6;
76679;PMS5003;65597;51.520;-0.224;2023-02-28T03:25:54;6;6;
76679;PMS5003;65597;51.520;-0.224;2023-02-28T03:28:18;7;6;
76679;PMS5003;65597;51.520;-0.224;2023-02-28T03:30:45;7;7;
76679;PMS5003;65597;51.520;-0.224;2023-02-28T03:33:08;7;7;
76679;PMS5003;65597;51.520;-0.224;2023-02-28T03:35:34;7;6;
76679;PMS5003;65597;51.520;-0.224;2023-02-28T03:38:00;7;7;
76679;PMS5003;65597;51.520;-0.224;2023-02-28T03:40:24;8;7;
76679;PMS5003;65597;51.520;-0.224;2023-02-28T03:42:51;7;6;
76679;PMS5003;65597;51.520;-0.224;2023-02-28T03:45:16;8;6;
76679;PMS5003;65597;51.520;-0.224;2023-02-28T03:47:41;8;6;
76679;PMS5003;65597;51.520;-0.224;2023-02-28T03:50:08;6;6;
76679;PMS5003;65597;51.520;-0.224;2023-02-28T03:52:33;8;8;
76679;PMS5003;65597;51.520;-0.224;2023-02-28T03:54:59;8;6;
76679;PMS5003;65597;51.520;-0.224;2023-02-28T03:57:26;9;8;
76679;PMS5003;65597;51.520;-0.224;2023-02-28T03:59:49;8;7;
76679;PMS5003;65597;51.520;-0.224;2023-02-28T04:02:14;8;8;
76679;PMS5003;65597;51.520;-0.224;2023-02-28T04:04:40;8;7;
76679;PMS5003;65597;51.520;-0.224;2023-02-28T04:07:06;8;7;
76679;PMS5003;65597;51.520;-0.224;2023-02-28T04:09:31;8;7;
76679;PMS5003;65597;51.520;-0.224;2023-02-28T04:11:56;7;7;
76679;PMS5003;65597;51.520;-0.224;2023-02-28T04:14:21;9;8;
76679;PMS5003;65597;51.520;-0.224;2023-02-28T04:16:47;12;10;
76679;PMS5003;65597;51.520;-0.224;2023-02-28T04:19:12;17;11;
76679;PMS5003;65597;51.520;-0.224;2023-02-28T04:21:38;9;8;
76679;PMS5003;65597;51.520;-0.224;2023-02-28T04:24:03;9;9;
76679;PMS5003;65597;51.520;-0.224;2023-02-28T04:26:30;13;10;
76679;PMS5003;65597;51.520;-0.224;2023-02-28T04:28:54;10;8;
76679;PMS5003;65597;51.520;-0.224;2023-02-28T04:31:19;11;10;
76679;PMS5003;65597;51.520;-0.224;2023-02-28T04:33:45;10;9;
76679;PMS5003;65597;51.520;-0.224;2023-02-28T04:36:11;11;11;
76679;PMS5003;65597;51.520;-0.224;2023-02-28T04:38:37;10;10;
76679;PMS5003;65597;51.520;-0.224;2023-02-28T04:41:01;12;10;
76679;PMS5003;65597;51.520;-0.224;2023-02-28T04:43:27;12;12;
76679;PMS5003;65597;51.520;-0.224;2023-02-28T04:45:52;12;12;
76679;PMS5003;65597;51.520;-0.224;2023-02-28T04:48:18;12;11;
76679;PMS5003;65597;51.520;-0.224;2023-02-28T04:50:44;13;12;
76679;PMS5003;65597;51.520;-0.224;2023-02-28T04:53:08;12;12;
76679;PMS5003;65597;51.520;-0.224;2023-02-28T04:55:34;16;13;
76679;PMS5003;65597;51.520;-0.224;2023-02-28T04:57:59;13;11;
76679;PMS5003;65597;51.520;-0.224;2023-02-28T05:00:25;14;13;
76679;PMS5003;65597;51.520;-0.224;2023-02-28T05:02:50;14;12;
76679;PMS5003;65597;51.520;-0.224;2023-02-28T05:05:16;13;12;
76679;PMS5003;65597;51.520;-0.224;2023-02-28T05:07:41;12;11;
76679;PMS5003;65597;51.520;-0.224;2023-02-28T05:10:07;13;13;
76679;PMS5003;65597;51.520;-0.224;2023-02-28T05:12:32;14;13;
76679;PMS5003;65597;51.520;-0.224;2023-02-28T05:14:58;13;13;
76679;PMS5003;65597;51.520;-0.224;2023-02-28T05:17:24;16;14;
76679;PMS5003;65597;51.520;-0.224;2023-02-28T05:19:49;13;13;
76679;PMS5003;65597;51.520;-0.224;2023-02-28T05:22:15;13;13;
76679;PMS5003;65597;51.520;-0.224;2023-02-28T05:24:40;17;11;
76679;PMS5003;65597;51.520;-0.224;2023-02-28T05:27:07;15;14;
76679;PMS5003;65597;51.520;-0.224;2023-02-28T05:29:31;12;11;
76679;PMS5003;65597;51.520;-0.224;2023-02-28T05:31:56;11;11;
76679;PMS5003;65597;51.520;-0.224;2023-02-28T05:34:22;11;10;
76679;PMS5003;65597;51.520;-0.224;2023-02-28T05:36:47;13;13;
76679;PMS5003;65597;51.520;-0.224;2023-02-28T05:39:14;16;12;
76679;PMS5003;65597;51.520;-0.224;2023-02-28T05:41:39;13;12;
76679;PMS5003;65597;51.520;-0.224;2023-02-28T05:44:04;16;14;
76679;PMS5003;65597;51.520;-0.224;2023-02-28T05:46:29;13;12;
76679;PMS5003;65597;51.520;-0.224;2023-02-28T05:48:54;14;13;
76679;PMS5003;65597;51.520;-0.224;2023-02-28T05:51:22;13;13;
76679;PMS5003;65597;51.520;-0.224;2023-02-28T05:53:45;17;13;
76679;PMS5003;65597;51.520;-0.224;2023-02-28T05:56:11;14;13;
76679;PMS5003;65597;51.520;-0.224;2023-02-28T05:58:36;14;12;
76679;PMS5003;65597;51.520;-0.224;2023-02-28T06:03:28;10;9;
76679;PMS5003;65597;51.520;-0.224;2023-02-28T06:05:53;13;12;
76679;PMS5003;65597;51.520;-0.224;2023-02-28T06:08:18;14;13;
76679;PMS5003;65597;51.520;-0.224;2023-02-28T06:10:43;13;12;
76679;PMS5003;65597;51.520;-0.224;2023-02-28T06:13:09;11;11;
76679;PMS5003;65597;51.520;-0.224;2023-02-28T06:15:34;11;11;
76679;PMS5003;65597;51.520;-0.224;2023-02-28T06:18:00;13;11;
76679;PMS5003;65597;51.520;-0.224;2023-02-28T06:20:26;16;14;
76679;PMS5003;65597;51.520;-0.224;2023-02-28T06:22:51;15;13;
76679;PMS5003;65597;51.520;-0.224;2023-02-28T06:25:17;18;13;
76679;PMS5003;65597;51.520;-0.224;2023-02-28T06:27:44;12;12;
76679;PMS5003;65597;51.520;-0.224;2023-02-28T06:30:09;13;11;
76679;PMS5003;65597;51.520;-0.224;2023-02-28T06:32:33;13;12;
76679;PMS5003;65597;51.520;-0.224;2023-02-28T06:34:59;19;14;
76679;PMS5003;65597;51.520;-0.224;2023-02-28T06:37:24;13;12;
76679;PMS5003;65597;51.520;-0.224;2023-02-28T06:39:51;13;12;
76679;PMS5003;65597;51.520;-0.224;2023-02-28T06:42:15;12;12;
76679;PMS5003;65597;51.520;-0.224;2023-02-28T06:44:41;11;11;
76679;PMS5003;65597;51.520;-0.224;2023-02-28T06:47:06;11;11;
76679;PMS5003;65597;51.520;-0.224;2023-02-28T06:49:33;16;13;
76679;PMS5003;65597;51.520;-0.224;2023-02-28T06:51:58;11;11;
76679;PMS5003;65597;51.520;-0.224;2023-02-28T06:54:22;13;13;
76679;PMS5003;65597;51.520;-0.224;2023-02-28T06:56:48;12;12;
76679;PMS5003;65597;51.520;-0.224;2023-02-28T06:59:14;13;12;
76679;PMS5003;65597;51.520;-0.224;2023-02-28T07:01:39;17;15;
76679;PMS5003;65597;51.520;-0.224;2023-02-28T07:04:05;12;12;
76679;PMS5003;65597;51.520;-0.224;2023-02-28T07:06:30;11;10;
76679;PMS5003;65597;51.520;-0.224;2023-02-28T07:08:55;12;12;
76679;PMS5003;65597;51.520;-0.224;2023-02-28T07:11:21;11;11;
76679;PMS5003;65597;51.520;-0.224;2023-02-28T07:13:46;17;17;
76679;PMS5003;65597;51.520;-0.224;2023-02-28T07:16:13;12;11;
76679;PMS5003;65597;51.520;-0.224;2023-02-28T07:18:38;12;11;
76679;PMS5003;65597;51.520;-0.224;2023-02-28T07:21:03;12;12;
76679;PMS5003;65597;51.520;-0.224;2023-02-28T07:23:28;12;12;
76679;PMS5003;65597;51.520;-0.224;2023-02-28T07:25:54;19;14;
76679;PMS5003;65597;51.520;-0.224;2023-02-28T07:28:19;11;11;
76679;PMS5003;65597;51.520;-0.224;2023-02-28T07:30:45;15;15;
76679;PMS5003;65597;51.520;-0.224;2023-02-28T07:33:10;14;13;
76679;PMS5003;65597;51.520;-0.224;2023-02-28T07:35:36;12;11;
76679;PMS5003;65597;51.520;-0.224;2023-02-28T07:38:02;13;12;
76679;PMS5003;65597;51.520;-0.224;2023-02-28T07:40:27;15;15;
76679;PMS5003;65597;51.520;-0.224;2023-02-28T07:42:52;11;10;
76679;PMS5003;65597;51.520;-0.224;2023-02-28T07:45:18;20;16;
76679;PMS5003;65597;51.520;-0.224;2023-02-28T07:47:43;13;13;
76679;PMS5003;65597;51.520;-0.224;2023-02-28T07:50:10;12;12;
76679;PMS5003;65597;51.520;-0.224;2023-02-28T07:52:35;12;11;
76679;PMS5003;65597;51.520;-0.224;2023-02-28T07:55:00;12;11;
76679;PMS5003;65597;51.520;-0.224;2023-02-28T07:57:25;15;15;
76679;PMS5003;65597;51.520;-0.224;2023-02-28T07:59:51;13;12;
76679;PMS5003;65597;51.520;-0.224;2023-02-28T08:02:17;13;12;
76679;PMS5003;65597;51.520;-0.224;2023-02-28T08:04:43;12;10;
76679;PMS5003;65597;51.520;-0.224;2023-02-28T08:07:08;16;14;
76679;PMS5003;65597;51.520;-0.224;2023-02-28T08:09:33;16;15;
76679;PMS5003;65597;51.520;-0.224;2023-02-28T08:11:59;13;13;
76679;PMS5003;65597;51.520;-0.224;2023-02-28T08:14:24;16;15;
76679;PMS5003;65597;51.520;-0.224;2023-02-28T08:16:50;19;15;
76679;PMS5003;65597;51.520;-0.224;2023-02-28T08:19:15;19;15;
76679;PMS5003;65597;51.520;-0.224;2023-02-28T08:21:41;13;12;
76679;PMS5003;65597;51.520;-0.224;2023-02-28T08:24:06;24;19;
76679;PMS5003;65597;51.520;-0.224;2023-02-28T08:26:32;16;16;
76679;PMS5003;65597;51.520;-0.224;2023-02-28T08:28:58;17;16;
76679;PMS5003;65597;51.520;-0.224;2023-02-28T08:31:22;16;15;
76679;PMS5003;65597;51.520;-0.224;2023-02-28T08:33:48;16;16;
76679;PMS5003;65597;51.520;-0.224;2023-02-28T08:36:14;19;16;
76679;PMS5003;65597;51.520;-0.224;2023-02-28T08:38:39;15;14;
76679;PMS5003;65597;51.520;-0.224;2023-02-28T08:41:07;13;12;
76679;PMS5003;65597;51.520;-0.224;2023-02-28T08:43:30;12;12;
76679;PMS5003;65597;51.520;-0.224;2023-02-28T08:45:56;10;9;
76679;PMS5003;65597;51.520;-0.224;2023-02-28T08:48:21;8;7;
76679;PMS5003;65597;51.520;-0.224;2023-02-28T08:53:14;10;9;
76679;PMS5003;65597;51.520;-0.224;2023-02-28T08:55:38;9;9;
76679;PMS5003;65597;51.520;-0.224;2023-02-28T08:58:03;7;7;
76679;PMS5003;65597;51.520;-0.224;2023-02-28T09:00:29;9;8;
76679;PMS5003;65597;51.520;-0.224;2023-02-28T09:02:54;7;7;
76679;PMS5003;65597;51.520;-0.224;2023-02-28T09:05:20;8;7;
76679;PMS5003;65597;51.520;-0.224;2023-02-28T09:07:46;8;8;
76679;PMS5003;65597;51.520;-0.224;2023-02-28T09:10:11;5;5;
76679;PMS5003;65597;51.520;-0.224;2023-02-28T09:12:37;8;7;
76679;PMS5003;65597;51.520;-0.224;2023-02-28T09:15:03;9;7;
76679;PMS5003;65597;51.520;-0.224;2023-02-28T09:17:28;11;10;
76679;PMS5003;65597;51.520;-0.224;2023-02-28T09:19:53;7;7;
76679;PMS5003;65597;51.520;-0.224;2023-02-28T09:22:19;11;10;
76679;PMS5003;65597;51.520;-0.224;2023-02-28T09:24:44;10;10;
76679;PMS5003;65597;51.520;-0.224;2023-02-28T09:27:10;10;10;
76679;PMS5003;65597;51.520;-0.224;2023-02-28T09:29:36;10;9;
76679;PMS5003;65597;51.520;-0.224;2023-02-28T09:32:01;8;7;
76679;PMS5003;65597;51.520;-0.224;2023-02-28T09:34:26;7;7;
76679;PMS5003;65597;51.520;-0.224;2023-02-28T09:36:52;8;8;
76679;PMS5003;65597;51.520;-0.224;2023-02-28T09:39:17;7;7;
76679;PMS5003;65597;51.520;-0.224;2023-02-28T09:41:43;9;7;
76679;PMS5003;65597;51.520;-0.224;2023-02-28T09:44:10;8;7;
76679;PMS5003;65597;51.520;-0.224;2023-02-28T09:46:34;6;6;
76679;PMS5003;65597;51.520;-0.224;2023-02-28T09:48:59;7;6;
76679;PMS5003;65597;51.520;-0.224;2023-02-28T09:51:28;8;7;
76679;PMS5003;65597;51.520;-0.224;2023-02-28T09:53:52;8;6;
76679;PMS5003;65597;51.520;-0.224;2023-02-28T09:56:18;4;4;
76679;PMS5003;65597;51.520;-0.224;2023-02-28T09:58:42;4;4;
76679;PMS5003;65597;51.520;-0.224;2023-02-28T10:01:09;6;5;
76679;PMS5003;65597;51.520;-0.224;2023-02-28T10:03:32;4;4;
76679;PMS5003;65597;51.520;-0.224;2023-02-28T10:06:00;5;4;
76679;PMS5003;65597;51.520;-0.224;2023-02-28T10:08:25;4;4;
76679;PMS5003;65597;51.520;-0.224;2023-02-28T10:10:50;4;4;
76679;PMS5003;65597;51.520;-0.224;2023-02-28T10:13:16;4;3;
76679;PMS5003;65597;51.520;-0.224;2023-02-28T10:15:40;4;4;
76679;PMS5003;65597;51.520;-0.224;2023-02-28T10:18:06;4;4;
76679;PMS5003;65597;51.520;-0.224;2023-02-28T10:20:32;5;5;
76679;PMS5003;65597;51.520;-0.224;2023-02-28T10:22:58;5;4;
76679;PMS5003;65597;51.520;-0.224;2023-02-28T10:25:23;4;3;
76679;PMS5003;65597;51.520;-0.224;2023-02-28T10:27:48;5;4;
76679;PMS5003;65597;51.520;-0.224;2023-02-28T10:30:15;5;5;
76679;PMS5003;65597;51.520;-0.224;2023-02-28T10:32:39;4;4;
76679;PMS5003;65597;51.520;-0.224;2023-02-28T10:35:09;3;3;
76679;PMS5003;65597;51.520;-0.224;2023-02-28T10:37:29;3;3;
76679;PMS5003;65597;51.520;-0.224;2023-02-28T10:39:55;3;3;
76679;PMS5003;65597;51.520;-0.224;2023-02-28T10:42:23;6;4;
76679;PMS5003;65597;51.520;-0.224;2023-02-28T10:44:46;2;2;
76679;PMS5003;65597;51.520;-0.224;2023-02-28T10:47:13;3;3;
76679;PMS5003;65597;51.520;-0.224;2023-02-28T10:49:37;3;3;
76679;PMS5003;65597;51.520;-0.224;2023-02-28T10:52:02;4;4;
76679;PMS5003;65597;51.520;-0.224;2023-02-28T10:54:30;4;4;
76679;PMS5003;65597;51.520;-0.224;2023-02-28T10:59:23;3;3;
76679;PMS5003;65597;51.520;-0.224;2023-02-28T11:01:45;5;5;
76679;PMS5003;65597;51.520;-0.224;2023-02-28T11:04:17;6;5;
76679;PMS5003;65597;51.520;-0.224;2023-02-28T11:06:35;7;7;
76679;PMS5003;65597;51.520;-0.224;2023-02-28T11:09:02;5;5;
76679;PMS5003;65597;51.520;-0.224;2023-02-28T11:11:27;5;5;
76679;PMS5003;65597;51.520;-0.224;2023-02-28T11:13:53;3;3;
76679;PMS5003;65597;51.520;-0.224;2023-02-28T11:16:18;6;4;
76679;PMS5003;65597;51.520;-0.224;2023-02-28T11:18:47;4;4;
76679;PMS5003;65597;51.520;-0.224;2023-02-28T11:21:09;4;4;
76679;PMS5003;65597;51.520;-0.224;2023-02-28T11:23:35;4;4;
76679;PMS5003;65597;51.520;-0.224;2023-02-28T11:26:00;4;4;
76679;PMS5003;65597;51.520;-0.224;2023-02-28T11:28:27;6;5;
76679;PMS5003;65597;51.520;-0.224;2023-02-28T11:33:23;3;3;
76679;PMS5003;65597;51.520;-0.224;2023-02-28T11:35:42;6;6;
76679;PMS5003;65597;51.520;-0.224;2023-02-28T11:38:07;7;7;
76679;PMS5003;65597;51.520;-0.224;2023-02-28T11:40:36;3;3;
76679;PMS5003;65597;51.520;-0.224;2023-02-28T11:43:01;5;5;
76679;PMS5003;65597;51.520;-0.224;2023-02-28T11:45:29;5;5;
76679;PMS5003;65597;51.520;-0.224;2023-02-28T11:47:52;5;5;
76679;PMS5003;65597;51.520;-0.224;2023-02-28T11:50:17;7;6;
76679;PMS5003;65597;51.520;-0.224;2023-02-28T11:52:42;7;5;
76679;PMS5003;65597;51.520;-0.224;2023-02-28T11:55:09;5;5;
76679;PMS5003;65597;51.520;-0.224;2023-02-28T11:57:33;6;6;
76679;PMS5003;65597;51.520;-0.224;2023-02-28T11:59:58;7;6;
76679;PMS5003;65597;51.520;-0.224;2023-02-28T12:02:23;5;5;
76679;PMS5003;65597;51.520;-0.224;2023-02-28T12:04:50;5;5;
76679;PMS5003;65597;51.520;-0.224;2023-02-28T12:07:15;6;6;
76679;PMS5003;65597;51.520;-0.224;2023-02-28T12:09:42;6;6;
76679;PMS5003;65597;51.520;-0.224;2023-02-28T12:12:06;7;7;
76679;PMS5003;65597;51.520;-0.224;2023-02-28T12:14:37;8;8;
76679;PMS5003;65597;51.520;-0.224;2023-02-28T12:16:58;8;8;
76679;PMS5003;65597;51.520;-0.224;2023-02-28T12:19:22;6;6;
76679;PMS5003;65597;51.520;-0.224;2023-02-28T12:21:55;7;7;
76679;PMS5003;65597;51.520;-0.224;2023-02-28T12:24:18;6;6;
76679;PMS5003;65597;51.520;-0.224;2023-02-28T12:26:38;8;8;
76679;PMS5003;65597;51.520;-0.224;2023-02-28T12:29:05;9;8;
76679;PMS5003;65597;51.520;-0.224;2023-02-28T12:31:31;6;6;
76679;PMS5003;65597;51.520;-0.224;2023-02-28T12:33:55;11;8;
76679;PMS5003;65597;51.520;-0.224;2023-02-28T12:36:20;6;5;
76679;PMS5003;65597;51.520;-0.224;2023-02-28T12:38:46;10;9;
76679;PMS5003;65597;51.520;-0.224;2023-02-28T12:41:12;8;7;
76679;PMS5003;65597;51.520;-0.224;2023-02-28T12:43:40;7;7;
76679;PMS5003;65597;51.520;-0.224;2023-02-28T12:46:02;7;7;
76679;PMS5003;65597;51.520;-0.224;2023-02-28T12:48:29;9;7;
76679;PMS5003;65597;51.520;-0.224;2023-02-28T12:50:53;5;5;
76679;PMS5003;65597;51.520;-0.224;2023-02-28T12:53:20;5;5;
76679;PMS5003;65597;51.520;-0.224;2023-02-28T12:55:46;9;7;
76679;PMS5003;65597;51.520;-0.224;2023-02-28T12:58:12;5;5;
76679;PMS5003;65597;51.520;-0.224;2023-02-28T13:00:35;4;4;
76679;PMS5003;65597;51.520;-0.224;2023-02-28T13:03:12;5;5;
76679;PMS5003;65597;51.520;-0.224;2023-02-28T13:07:56;4;3;
76679;PMS5003;65597;51.520;-0.224;2023-02-28T13:10:17;3;3;
76679;PMS5003;65597;51.520;-0.224;2023-02-28T13:12:47;2;2;
76679;PMS5003;65597;51.520;-0.224;2023-02-28T13:15:08;3;3;
76679;PMS5003;65597;51.520;-0.224;2023-02-28T13:17:33;3;3;
76679;PMS5003;65597;51.520;-0.224;2023-02-28T13:20:00;4;3;
76679;PMS5003;65597;51.520;-0.224;2023-02-28T13:24:50;5;5;
76679;PMS5003;65597;51.520;-0.224;2023-02-28T13:29:41;5;4;
76679;PMS5003;65597;51.520;-0.224;2023-02-28T13:34:32;4;3;
76679;PMS5003;65597;51.520;-0.224;2023-02-28T13:41:48;4;3;
76679;PMS5003;65597;51.520;-0.224;2023-02-28T13:44:17;4;4;
76679;PMS5003;65597;51.520;-0.224;2023-02-28T13:51:37;3;3;
76679;PMS5003;65597;51.520;-0.224;2023-02-28T13:53:57;4;4;
76679;PMS5003;65597;51.520;-0.224;2023-02-28T13:56:24;4;4;
76679;PMS5003;65597;51.520;-0.224;2023-02-28T13:58:50;3;3;
76679;PMS5003;65597;51.520;-0.224;2023-02-28T14:01:15;3;3;
76679;PMS5003;65597;51.520;-0.224;2023-02-28T14:03:49;3;3;
76679;PMS5003;65597;51.520;-0.224;2023-02-28T14:06:09;6;5;
76679;PMS5003;65597;51.520;-0.224;2023-02-28T14:08:28;2;2;
76679;PMS5003;65597;51.520;-0.224;2023-02-28T14:11:03;3;3;
76679;PMS5003;65597;51.520;-0.224;2023-02-28T14:15:55;3;3;
76679;PMS5003;65597;51.520;-0.224;2023-02-28T14:18:14;2;2;
76679;PMS5003;65597;51.520;-0.224;2023-02-28T14:20:39;4;3;
76679;PMS5003;65597;51.520;-0.224;2023-02-28T14:23:02;4;3;
76679;PMS5003;65597;51.520;-0.224;2023-02-28T14:25:30;2;2;
76679;PMS5003;65597;51.520;-0.224;2023-02-28T14:27:54;2;2;
76679;PMS5003;65597;51.520;-0.224;2023-02-28T14:32:45;3;3;
76679;PMS5003;65597;51.520;-0.224;2023-02-28T14:35:12;3;2;
76679;PMS5003;65597;51.520;-0.224;2023-02-28T14:37:36;4;4;
76679;PMS5003;65597;51.520;-0.224;2023-02-28T14:40:00;2;2;
76679;PMS5003;65597;51.520;-0.224;2023-02-28T14:42:27;2;2;
76679;PMS5003;65597;51.520;-0.224;2023-02-28T14:44:54;4;4;
76679;PMS5003;65597;51.520;-0.224;2023-02-28T14:47:17;3;3;
76679;PMS5003;65597;51.520;-0.224;2023-02-28T14:49:43;5;4;
76679;PMS5003;65597;51.520;-0.224;2023-02-28T14:52:11;4;3;
76679;PMS5003;65597;51.520;-0.224;2023-02-28T14:54:33;3;3;
76679;PMS5003;65597;51.520;-0.224;2023-02-28T14:57:00;4;4;
76679;PMS5003;65597;51.520;-0.224;2023-02-28T14:59:26;4;3;
76679;PMS5003;65597;51.520;-0.224;2023-02-28T15:01:50;3;3;
76679;PMS5003;65597;51.520;-0.224;2023-02-28T15:04:18;4;3;
76679;PMS5003;65597;51.520;-0.224;2023-02-28T15:06:41;3;3;
76679;PMS5003;65597;51.520;-0.224;2023-02-28T15:09:07;3;3;
76679;PMS5003;65597;51.520;-0.224;2023-02-28T15:11:32;2;2;
76679;PMS5003;65597;51.520;-0.224;2023-02-28T15:13:57;5;4;
76679;PMS5003;65597;51.520;-0.224;2023-02-28T15:16:24;5;4;
76679;PMS5003;65597;51.520;-0.224;2023-02-28T15:18:49;2;2;
76679;PMS5003;65597;51.520;-0.224;2023-02-28T15:21:14;2;2;
76679;PMS5003;65597;51.520;-0.224;2023-02-28T15:23:39;3;3;
76679;PMS5003;65597;51.520;-0.224;2023-02-28T15:26:05;3;3;
76679;PMS5003;65597;51.520;-0.224;2023-02-28T15:28:30;3;2;
76679;PMS5003;65597;51.520;-0.224;2023-02-28T15:30:57;2;2;
76679;PMS5003;65597;51.520;-0.224;2023-02-28T15:33:23;3;3;
76679;PMS5003;65597;51.520;-0.224;2023-02-28T15:35:47;3;3;
76679;PMS5003;65597;51.520;-0.224;2023-02-28T15:38:14;3;3;
76679;PMS5003;65597;51.520;-0.224;2023-02-28T15:40:40;3;2;
76679;PMS5003;65597;51.520;-0.224;2023-02-28T15:43:04;5;2;
76679;PMS5003;65597;51.520;-0.224;2023-02-28T15:45:32;2;2;
76679;PMS5003;65597;51.520;-0.224;2023-02-28T15:47:55;2;2;
76679;PMS5003;65597;51.520;-0.224;2023-02-28T15:50:20;3;2;
76679;PMS5003;65597;51.520;-0.224;2023-02-28T15:52:46;2;2;
76679;PMS5003;65597;51.520;-0.224;2023-02-28T15:55:12;3;2;
76679;PMS5003;65597;51.520;-0.224;2023-02-28T15:57:38;2;2;
76679;PMS5003;65597;51.520;-0.224;2023-02-28T16:00:03;3;2;
76679;PMS5003;65597;51.520;-0.224;2023-02-28T16:02:30;2;2;
76679;PMS5003;65597;51.520;-0.224;2023-02-28T16:04:55;2;2;
76679;PMS5003;65597;51.520;-0.224;2023-02-28T16:07:19;1;1;
76679;PMS5003;65597;51.520;-0.224;2023-02-28T16:09:44;2;2;
76679;PMS5003;65597;51.520;-0.224;2023-02-28T16:12:10;2;2;
76679;PMS5003;65597;51.520;-0.224;2023-02-28T16:14:35;1;1;
76679;PMS5003;65597;51.520;-0.224;2023-02-28T16:17:03;2;2;
76679;PMS5003;65597;51.520;-0.224;2023-02-28T16:19:26;1;1;
76679;PMS5003;65597;51.520;-0.224;2023-02-28T16:21:52;4;3;
76679;PMS5003;65597;51.520;-0.224;2023-02-28T16:24:17;3;2;
76679;PMS5003;65597;51.520;-0.224;2023-02-28T16:26:45;6;3;
76679;PMS5003;65597;51.520;-0.224;2023-02-28T16:29:08;3;3;
76679;PMS5003;65597;51.520;-0.224;2023-02-28T16:31:35;2;1;
76679;PMS5003;65597;51.520;-0.224;2023-02-28T16:33:59;3;3;
76679;PMS5003;65597;51.520;-0.224;2023-02-28T16:36:25;2;2;
76679;PMS5003;65597;51.520;-0.224;2023-02-28T16:38:50;2;2;
76679;PMS5003;65597;51.520;-0.224;2023-02-28T16:41:16;3;3;
76679;PMS5003;65597;51.520;-0.224;2023-02-28T16:43:41;2;2;
76679;PMS5003;65597;51.520;-0.224;2023-02-28T16:46:09;4;3;
76679;PMS5003;65597;51.520;-0.224;2023-02-28T16:48:32;2;2;
76679;PMS5003;65597;51.520;-0.224;2023-02-28T16:50:58;2;2;
76679;PMS5003;65597;51.520;-0.224;2023-02-28T16:53:23;1;1;